createdAt,value
2023-05-21T00:02:36.570Z,102662.25
2023-05-21T00:05:37.796Z,102667.69
2023-05-21T00:08:38.377Z,102665.41
2023-05-21T00:11:39.432Z,102669.94
2023-05-21T00:14:33.515Z,102660.13
2023-05-21T00:17:27.419Z,102669.94
2023-05-21T00:20:28.341Z,102666.38
2023-05-21T00:23:30.435Z,102669.72
2023-05-21T00:26:31.372Z,102673.25
2023-05-21T00:29:34.526Z,102669.63
2023-05-21T00:32:35.436Z,102668.88
2023-05-21T00:35:36.650Z,102667.59
2023-05-21T00:38:39.367Z,102671.50
2023-05-21T00:41:42.385Z,102668.81
2023-05-21T00:44:43.620Z,102670.41
2023-05-21T00:47:44.418Z,102668.19
2023-05-21T00:50:46.434Z,102669.72
2023-05-21T00:53:47.433Z,102674.69
2023-05-21T00:56:48.364Z,102674.00
2023-05-21T00:59:49.754Z,102681.00
2023-05-21T01:02:56.464Z,102669.72
2023-05-21T01:05:57.616Z,102670.81
2023-05-21T01:08:58.641Z,102672.56
2023-05-21T01:12:03.410Z,102672.84
2023-05-21T01:15:04.380Z,102676.94
2023-05-21T01:18:06.418Z,102684.19
2023-05-21T01:21:08.341Z,102681.84
2023-05-21T01:24:12.387Z,102675.56
2023-05-21T01:27:14.334Z,102678.28
2023-05-21T01:30:15.460Z,102670.16
2023-05-21T01:33:19.426Z,102673.31
2023-05-21T01:36:28.406Z,102676.13
2023-05-21T01:39:32.342Z,102671.09
2023-05-21T01:42:33.412Z,102669.06
2023-05-21T01:45:36.565Z,102677.72
2023-05-21T01:48:39.421Z,102668.56
2023-05-21T01:51:40.380Z,102666.84
2023-05-21T01:54:41.580Z,102667.88
2023-05-21T01:57:42.371Z,102662.63
2023-05-21T02:00:44.413Z,102671.91
2023-05-21T02:03:45.432Z,102664.63
2023-05-21T02:06:46.432Z,102662.78
2023-05-21T02:09:47.360Z,102669.50
2023-05-21T02:12:48.410Z,102676.53
2023-05-21T02:15:42.485Z,102669.75
2023-05-21T02:18:36.381Z,102661.78
2023-05-21T02:21:37.411Z,102662.25
2023-05-21T02:24:38.389Z,102669.09
2023-05-21T02:27:39.375Z,102661.28
2023-05-21T02:30:40.412Z,102659.69
2023-05-21T02:33:41.397Z,102652.56
2023-05-21T02:36:42.398Z,102652.38
2023-05-21T02:39:45.375Z,102654.28
2023-05-21T02:42:46.409Z,102643.84
2023-05-21T02:45:48.381Z,102648.81
2023-05-21T02:48:49.394Z,102651.47
2023-05-21T02:51:50.352Z,102654.16
2023-05-21T02:54:51.447Z,102649.16
2023-05-21T02:57:52.410Z,102649.38
2023-05-21T03:00:53.399Z,102646.78
2023-05-21T03:03:55.369Z,102644.03
2023-05-21T03:06:56.410Z,102637.75
2023-05-21T03:09:58.329Z,102643.50
2023-05-21T03:13:00.420Z,102653.28
2023-05-21T03:16:04.336Z,102648.53
2023-05-21T03:19:05.461Z,102654.09
2023-05-21T03:22:06.340Z,102653.63
2023-05-21T03:25:07.418Z,102649.00
2023-05-21T03:28:08.342Z,102652.50
2023-05-21T03:31:12.381Z,102653.41
2023-05-21T03:34:18.794Z,102649.28
2023-05-21T03:37:19.453Z,102650.47
2023-05-21T03:40:20.340Z,102640.91
2023-05-21T03:43:21.384Z,102648.88
2023-05-21T03:46:22.365Z,102650.69
2023-05-21T03:49:33.389Z,102655.38
2023-05-21T03:52:35.342Z,102650.09
2023-05-21T03:55:36.694Z,102650.66
2023-05-21T03:58:37.342Z,102642.41
2023-05-21T04:01:39.395Z,102641.56
2023-05-21T04:04:43.450Z,102638.31
2023-05-21T04:07:46.841Z,102639.84
2023-05-21T04:10:48.668Z,102636.38
2023-05-21T04:13:50.406Z,102632.09
2023-05-21T04:16:45.112Z,102638.09
2023-05-21T04:19:40.486Z,102632.81
2023-05-21T04:22:43.281Z,102642.75
2023-05-21T04:25:46.664Z,102625.72
2023-05-21T04:28:48.347Z,102630.16
2023-05-21T04:31:49.551Z,102633.66
2023-05-21T04:34:51.369Z,102638.88
2023-05-21T04:37:52.936Z,102630.97
2023-05-21T04:40:53.573Z,102637.47
2023-05-21T04:43:56.826Z,102628.56
2023-05-21T04:46:59.544Z,102630.16
2023-05-21T04:50:01.288Z,102628.75
2023-05-21T04:53:02.988Z,102623.03
2023-05-21T04:56:03.963Z,102622.03
2023-05-21T04:59:05.713Z,102619.41
2023-05-21T05:02:06.926Z,102618.19
2023-05-21T05:05:07.739Z,102624.41
2023-05-21T05:08:09.377Z,102615.31
2023-05-21T05:11:10.419Z,102605.56
2023-05-21T05:14:11.370Z,102610.66
2023-05-21T05:17:12.350Z,102613.81
2023-05-21T05:20:14.119Z,102610.44
2023-05-21T05:23:21.456Z,102616.34
2023-05-21T05:26:23.521Z,102603.81
2023-05-21T05:29:25.092Z,102608.75
2023-05-21T05:32:27.599Z,102615.69
2023-05-21T05:35:28.383Z,102611.47
2023-05-21T05:38:31.028Z,102619.19
2023-05-21T05:42:20.369Z,102610.28
2023-05-21T05:45:21.391Z,102609.72
2023-05-21T05:48:23.354Z,102611.78
2023-05-21T05:51:25.386Z,102598.66
2023-05-21T05:54:26.335Z,102590.31
2023-05-21T05:57:27.495Z,102589.75
2023-05-21T06:00:33.318Z,102587.78
2023-05-21T06:03:34.629Z,102584.59
2023-05-21T06:06:43.395Z,102549.00
2023-05-21T06:09:45.357Z,102580.69
2023-05-21T06:12:46.335Z,102592.34
2023-05-21T06:15:49.432Z,102574.28
2023-05-21T06:18:43.573Z,102574.97
2023-05-21T06:21:37.360Z,102581.00
2023-05-21T06:24:39.322Z,102580.22
2023-05-21T06:27:41.402Z,102577.72
2023-05-21T06:30:47.309Z,102574.00
2023-05-21T06:33:48.489Z,102583.16
2023-05-21T06:36:49.528Z,102573.06
2023-05-21T06:39:50.374Z,102570.72
2023-05-21T06:42:51.352Z,102568.28
2023-05-21T06:46:10.440Z,102574.16
2023-05-21T06:49:14.190Z,102576.91
2023-05-21T06:52:15.351Z,102574.38
2023-05-21T06:55:16.328Z,102571.28
2023-05-21T06:58:38.432Z,102570.91
2023-05-21T07:01:39.496Z,102573.22
2023-05-21T07:04:41.344Z,102567.41
2023-05-21T07:07:42.325Z,102565.03
2023-05-21T07:10:43.349Z,102567.81
2023-05-21T07:13:45.345Z,102563.28
2023-05-21T07:16:46.416Z,102562.97
2023-05-21T07:19:40.601Z,102557.13
2023-05-21T07:22:34.344Z,102556.31
2023-05-21T07:25:36.469Z,102567.56
2023-05-21T07:28:37.368Z,102562.97
2023-05-21T07:31:38.412Z,102559.13
2023-05-21T07:34:39.449Z,102562.47
2023-05-21T07:37:40.391Z,102562.88
2023-05-21T07:40:41.359Z,102551.09
2023-05-21T07:43:42.408Z,102548.84
2023-05-21T07:46:43.384Z,102555.09
2023-05-21T07:49:44.381Z,102556.72
2023-05-21T07:52:45.377Z,102546.50
2023-05-21T07:55:54.325Z,102556.50
2023-05-21T07:58:56.526Z,102553.50
2023-05-21T08:01:57.283Z,102555.59
2023-05-21T08:04:59.398Z,102549.53
2023-05-21T08:08:00.333Z,102550.31
2023-05-21T08:11:01.356Z,102552.09
2023-05-21T08:14:02.373Z,102551.59
2023-05-21T08:17:03.340Z,102547.28
2023-05-21T08:20:04.320Z,102547.44
2023-05-21T08:23:06.338Z,102551.47
2023-05-21T08:26:14.313Z,102555.47
2023-05-21T08:29:15.345Z,102561.34
2023-05-21T08:32:16.537Z,102553.22
2023-05-21T08:35:17.405Z,102551.41
2023-05-21T08:38:25.296Z,102553.03
2023-05-21T08:41:26.357Z,102554.34
2023-05-21T08:44:27.344Z,102548.53
2023-05-21T08:47:30.386Z,102548.31
2023-05-21T08:50:32.332Z,102542.94
2023-05-21T08:53:39.351Z,102540.63
2023-05-21T08:56:45.287Z,102532.66
2023-05-21T08:59:50.512Z,102543.59
2023-05-21T09:02:54.538Z,102531.16
2023-05-21T09:05:56.342Z,102532.03
2023-05-21T09:09:03.338Z,102530.47
2023-05-21T09:12:09.337Z,102528.72
2023-05-21T09:15:10.315Z,102534.34
2023-05-21T09:18:11.375Z,102534.22
2023-05-21T09:21:31.549Z,102538.47
2023-05-21T09:24:37.348Z,102529.53
2023-05-21T09:27:38.298Z,102528.44
2023-05-21T09:30:39.673Z,102519.84
2023-05-21T09:33:40.299Z,102520.38
2023-05-21T09:36:42.362Z,102520.75
2023-05-21T09:39:43.305Z,102515.28
2023-05-21T09:42:44.389Z,102521.81
2023-05-21T09:45:45.266Z,102509.16
2023-05-21T09:48:50.334Z,102515.63
2023-05-21T09:51:52.294Z,102516.28
2023-05-21T09:54:53.333Z,102506.47
2023-05-21T09:57:54.312Z,102512.56
2023-05-21T10:00:55.492Z,102517.91
2023-05-21T10:03:58.360Z,102509.22
2023-05-21T10:07:01.322Z,102510.16
2023-05-21T10:10:05.321Z,102514.78
2023-05-21T10:13:09.388Z,102507.28
2023-05-21T10:16:14.332Z,102501.50
2023-05-21T10:19:17.377Z,102498.66
2023-05-21T10:22:11.396Z,102498.78
2023-05-21T10:25:05.715Z,102502.34
2023-05-21T10:28:07.358Z,102502.75
2023-05-21T10:31:08.343Z,102498.41
2023-05-21T10:34:09.274Z,102498.84
2023-05-21T10:37:11.320Z,102500.16
2023-05-21T10:40:12.305Z,102488.22
2023-05-21T10:43:31.368Z,102478.84
2023-05-21T10:46:50.287Z,102481.88
2023-05-21T10:49:51.331Z,102487.44
2023-05-21T10:52:52.324Z,102483.44
2023-05-21T10:55:53.400Z,102492.19
2023-05-21T10:59:04.277Z,102484.53
2023-05-21T11:02:05.599Z,102480.41
2023-05-21T11:05:12.293Z,102472.97
2023-05-21T11:08:13.353Z,102469.69
2023-05-21T11:11:14.281Z,102467.31
2023-05-21T11:14:15.336Z,102472.31
2023-05-21T11:17:17.343Z,102465.34
2023-05-21T11:20:18.321Z,102455.56
2023-05-21T11:23:12.426Z,102461.22
2023-05-21T11:26:09.305Z,102459.69
2023-05-21T11:29:20.479Z,102469.50
2023-05-21T11:32:27.311Z,102464.28
2023-05-21T11:35:28.389Z,102460.16
2023-05-21T11:38:29.292Z,102455.78
2023-05-21T11:41:33.285Z,102456.66
2023-05-21T11:44:52.301Z,102453.06
2023-05-21T11:47:53.344Z,102457.31
2023-05-21T11:50:54.349Z,102451.88
2023-05-21T11:53:55.326Z,102452.06
2023-05-21T11:56:56.293Z,102453.41
2023-05-21T11:59:59.596Z,102442.50
2023-05-21T12:03:06.483Z,102445.75
2023-05-21T12:06:07.325Z,102438.16
2023-05-21T12:09:08.323Z,102443.13
2023-05-21T12:12:09.261Z,102434.66
2023-05-21T12:15:10.383Z,102441.28
2023-05-21T12:18:11.413Z,102436.53
2023-05-21T12:21:12.741Z,102432.91
2023-05-21T12:24:06.375Z,102442.59
2023-05-21T12:27:01.301Z,102435.94
2023-05-21T12:30:05.258Z,102431.59
2023-05-21T12:33:06.558Z,102430.31
2023-05-21T12:36:07.274Z,102418.31
2023-05-21T12:39:09.927Z,102415.69
2023-05-21T12:42:12.276Z,102413.09
2023-05-21T12:45:13.322Z,102408.53
2023-05-21T12:48:16.275Z,102412.66
2023-05-21T12:51:17.409Z,102417.03
2023-05-21T12:54:18.250Z,102410.28
2023-05-21T12:57:23.301Z,102414.31
2023-05-21T13:00:24.257Z,102409.84
2023-05-21T13:03:25.485Z,102410.66
2023-05-21T13:06:26.439Z,102409.31
2023-05-21T13:09:27.418Z,102408.50
2023-05-21T13:12:28.292Z,102412.56
2023-05-21T13:15:38.303Z,102412.34
2023-05-21T13:18:39.266Z,102405.09
2023-05-21T13:21:40.293Z,102401.38
2023-05-21T13:24:41.313Z,102408.44
2023-05-21T13:27:43.330Z,102411.34
2023-05-21T13:30:44.292Z,102402.81
2023-05-21T13:33:45.349Z,102396.69
2023-05-21T13:36:46.246Z,102390.25
2023-05-21T13:39:47.312Z,102373.63
2023-05-21T13:42:49.645Z,102382.38
2023-05-21T13:45:50.308Z,102376.03
2023-05-21T13:48:51.245Z,102379.59
2023-05-21T13:51:52.306Z,102372.75
2023-05-21T13:54:53.232Z,102371.19
2023-05-21T13:57:54.338Z,102366.53
2023-05-21T14:00:55.264Z,102361.41
2023-05-21T14:03:56.343Z,102368.47
2023-05-21T14:06:57.283Z,102358.22
2023-05-21T14:09:59.297Z,102351.50
2023-05-21T14:13:07.790Z,102353.41
2023-05-21T14:16:41.355Z,102353.00
2023-05-21T14:19:42.244Z,102358.88
2023-05-21T14:22:43.363Z,102354.72
2023-05-21T14:25:37.669Z,102353.00
2023-05-21T14:28:31.257Z,102345.09
2023-05-21T14:31:32.260Z,102349.00
2023-05-21T14:34:33.265Z,102335.44
2023-05-21T14:37:34.283Z,102336.94
2023-05-21T14:40:35.292Z,102336.63
2023-05-21T14:43:36.268Z,102342.59
2023-05-21T14:46:37.341Z,102333.66
2023-05-21T14:49:38.224Z,102329.66
2023-05-21T14:52:39.280Z,102333.84
2023-05-21T14:55:41.514Z,102326.91
2023-05-21T14:58:44.316Z,102327.16
2023-05-21T15:01:45.253Z,102319.88
2023-05-21T15:04:46.324Z,102318.66
2023-05-21T15:07:47.221Z,102324.56
2023-05-21T15:10:48.262Z,102312.94
2023-05-21T15:13:49.206Z,102311.91
2023-05-21T15:16:50.425Z,102316.25
2023-05-21T15:19:51.244Z,102314.56
2023-05-21T15:22:59.049Z,102307.38
2023-05-21T15:26:09.267Z,102296.25
2023-05-21T15:29:10.290Z,102295.63
2023-05-21T15:32:12.219Z,102295.59
2023-05-21T15:35:13.358Z,102293.25
2023-05-21T15:38:14.222Z,102293.41
2023-05-21T15:41:15.306Z,102287.78
2023-05-21T15:44:16.224Z,102280.41
2023-05-21T15:47:17.272Z,102277.66
2023-05-21T15:50:18.231Z,102273.34
2023-05-21T15:53:19.247Z,102268.22
2023-05-21T15:56:20.249Z,102262.97
2023-05-21T15:59:21.270Z,102261.03
2023-05-21T16:02:22.247Z,102257.56
2023-05-21T16:05:23.331Z,102256.91
2023-05-21T16:08:24.245Z,102258.88
2023-05-21T16:11:25.312Z,102258.44
2023-05-21T16:14:26.249Z,102263.66
2023-05-21T16:17:27.306Z,102266.16
2023-05-21T16:20:28.270Z,102259.84
2023-05-21T16:23:29.278Z,102264.53
2023-05-21T16:26:30.253Z,102258.75
2023-05-21T16:29:32.265Z,102256.88
2023-05-21T16:32:35.334Z,102264.28
2023-05-21T16:35:37.499Z,102258.84
2023-05-21T16:38:38.230Z,102264.78
2023-05-21T16:41:39.382Z,102258.00
2023-05-21T16:44:41.238Z,102255.38
2023-05-21T16:47:42.276Z,102249.94
2023-05-21T16:50:43.201Z,102248.84
2023-05-21T16:53:44.274Z,102262.75
2023-05-21T16:56:45.243Z,102257.69
2023-05-21T16:59:46.276Z,102253.59
2023-05-21T17:02:47.264Z,102246.25
2023-05-21T17:05:48.417Z,102242.53
2023-05-21T17:08:49.271Z,102244.28
2023-05-21T17:11:50.326Z,102240.16
2023-05-21T17:14:52.222Z,102250.53
2023-05-21T17:17:53.416Z,102242.50
2023-05-21T17:20:54.224Z,102234.44
2023-05-21T17:23:55.279Z,102241.81
2023-05-21T17:26:56.217Z,102231.25
2023-05-21T17:29:57.244Z,102238.13
2023-05-21T17:32:59.409Z,102234.66
2023-05-21T17:36:25.244Z,102233.75
2023-05-21T17:39:26.253Z,102234.38
2023-05-21T17:42:27.286Z,102233.59
2023-05-21T17:45:28.272Z,102227.72
2023-05-21T17:48:29.264Z,102234.66
2023-05-21T17:51:30.290Z,102234.66
2023-05-21T17:54:31.245Z,102230.31
2023-05-21T17:57:32.212Z,102224.66
2023-05-21T18:00:33.438Z,102229.69
2023-05-21T18:03:34.235Z,102233.16
2023-05-21T18:06:35.567Z,102236.31
2023-05-21T18:09:36.188Z,102236.91
2023-05-21T18:12:37.254Z,102246.44
2023-05-21T18:15:38.451Z,102246.84
2023-05-21T18:18:39.272Z,102242.38
2023-05-21T18:21:40.200Z,102247.72
2023-05-21T18:24:41.236Z,102251.38
2023-05-21T18:27:35.343Z,102250.56
2023-05-21T18:30:29.262Z,102257.72
2023-05-21T18:33:30.194Z,102251.69
2023-05-21T18:36:31.244Z,102253.00
2023-05-21T18:39:32.194Z,102260.59
2023-05-21T18:42:35.227Z,102255.59
2023-05-21T18:45:36.224Z,102256.66
2023-05-21T18:48:37.245Z,102259.59
2023-05-21T18:51:38.204Z,102274.28
2023-05-21T18:54:39.269Z,102272.88
2023-05-21T18:57:41.181Z,102279.28
2023-05-21T19:00:42.227Z,102271.06
2023-05-21T19:03:43.224Z,102279.53
2023-05-21T19:06:44.532Z,102286.72
2023-05-21T19:09:45.206Z,102276.50
2023-05-21T19:12:48.250Z,102284.72
2023-05-21T19:15:53.310Z,102290.19
2023-05-21T19:18:54.241Z,102280.63
2023-05-21T19:21:59.234Z,102278.63
2023-05-21T19:25:00.226Z,102278.25
2023-05-21T19:28:01.191Z,102277.66
2023-05-21T19:31:02.224Z,102286.91
2023-05-21T19:34:03.222Z,102290.63
2023-05-21T19:37:04.234Z,102292.81
2023-05-21T19:40:05.207Z,102289.28
2023-05-21T19:43:06.269Z,102281.47
2023-05-21T19:46:07.210Z,102276.28
2023-05-21T19:49:08.326Z,102278.03
2023-05-21T19:52:12.197Z,102274.84
2023-05-21T19:55:17.254Z,102273.19
2023-05-21T19:58:20.186Z,102269.94
2023-05-21T20:01:21.266Z,102278.03
2023-05-21T20:04:22.366Z,102277.13
2023-05-21T20:07:23.269Z,102266.47
2023-05-21T20:10:24.192Z,102271.69
2023-05-21T20:13:25.234Z,102268.94
2023-05-21T20:16:26.234Z,102270.59
2023-05-21T20:19:29.278Z,102269.09
2023-05-21T20:22:30.526Z,102269.72
2023-05-21T20:25:31.278Z,102271.69
2023-05-21T20:28:32.205Z,102279.84
2023-05-21T20:31:34.284Z,102280.63
2023-05-21T20:34:35.179Z,102284.09
2023-05-21T20:37:36.210Z,102285.41
2023-05-21T20:40:37.368Z,102286.06
2023-05-21T20:43:38.216Z,102284.53
2023-05-21T20:46:39.273Z,102291.72
2023-05-21T20:49:40.257Z,102287.13
2023-05-21T20:52:41.247Z,102281.25
2023-05-21T20:56:08.393Z,102279.53
2023-05-21T20:59:10.896Z,102287.13
2023-05-21T21:02:12.237Z,102281.94
2023-05-21T21:05:13.163Z,102287.38
2023-05-21T21:08:15.396Z,102284.09
2023-05-21T21:11:16.179Z,102279.75
2023-05-21T21:14:17.241Z,102278.22
2023-05-21T21:17:18.181Z,102283.84
2023-05-21T21:20:20.227Z,102288.41
2023-05-21T21:23:21.187Z,102283.44
2023-05-21T21:26:22.212Z,102276.72
2023-05-21T21:29:16.276Z,102268.97
2023-05-21T21:32:10.234Z,102274.84
2023-05-21T21:35:17.182Z,102264.94
2023-05-21T21:38:18.179Z,102260.59
2023-05-21T21:41:19.164Z,102262.31
2023-05-21T21:44:20.208Z,102260.34
2023-05-21T21:47:21.175Z,102259.28
2023-05-21T21:50:22.204Z,102259.50
2023-05-21T21:53:23.159Z,102257.13
2023-05-21T21:56:24.211Z,102263.41
2023-05-21T21:59:25.188Z,102257.75
2023-05-21T22:02:26.243Z,102265.47
2023-05-21T22:05:27.196Z,102260.59
2023-05-21T22:08:28.372Z,102254.50
2023-05-21T22:11:29.200Z,102255.16
2023-05-21T22:14:30.223Z,102262.13
2023-05-21T22:17:31.218Z,102264.75
2023-05-21T22:20:39.421Z,102249.94
2023-05-21T22:23:40.204Z,102254.31
2023-05-21T22:26:41.229Z,102261.91
2023-05-21T22:29:42.189Z,102250.19
2023-05-21T22:32:43.270Z,102250.38
2023-05-21T22:35:44.171Z,102253.09
2023-05-21T22:38:45.197Z,102261.25
2023-05-21T22:41:46.161Z,102262.34
2023-05-21T22:44:47.198Z,102259.31
2023-05-21T22:47:48.233Z,102264.28
2023-05-21T22:50:49.218Z,102261.25
2023-05-21T22:53:50.161Z,102254.09
2023-05-21T22:56:51.225Z,102258.66
2023-05-21T22:59:52.171Z,102256.47
2023-05-21T23:02:55.246Z,102246.03
2023-05-21T23:05:56.211Z,102253.22
2023-05-21T23:08:57.341Z,102247.56
2023-05-21T23:11:58.151Z,102239.72
2023-05-21T23:15:00.214Z,102245.16
2023-05-21T23:18:02.181Z,102244.06
2023-05-21T23:21:03.240Z,102242.88
2023-05-21T23:24:04.161Z,102253.00
2023-05-21T23:27:09.207Z,102257.28
2023-05-21T23:30:10.265Z,102247.06
2023-05-21T23:33:11.261Z,102250.34
2023-05-21T23:36:12.155Z,102251.00
2023-05-21T23:39:13.190Z,102248.53
2023-05-21T23:42:14.148Z,102246.22
2023-05-21T23:45:15.211Z,102241.91
2023-05-21T23:48:16.184Z,102241.47
2023-05-21T23:51:17.210Z,102241.00
2023-05-21T23:54:18.147Z,102236.66
2023-05-21T23:57:20.191Z,102231.66
